Pagrindinis puslapis
METAR-TAF:

METAR-TAF

Oro uostai :

Kaljaris, Italija

platuma: 39-15N, ilguma: 009-04E, Aukštis: 4 m

Dabartinis oras

Ataskaita buvo paskelbta 39 minutes, ne 19:20 UTC
Vėjas 5 kt iš Pietų/Pietryčių
Temperatūra 25°C
Drėgmė 83%
Slėgis 1017 hPa
Matomumas 10 km arba daugiau
Mažai debesys ne aukštis 4000 ft

METAR: LIEE 191920Z 15005KT 9999 FEW040 25/22 Q1017

Laikas: 21:59 (19:59 UTC)

Prognozė

Ataskaita buvo paskelbta 2 valandos ir 59 minutes, ne 17:00 UTC
Prognozė galioja nuo 19 metu 18 UTC su 20 metu 18 UTC
Vėjas 4 kt nuo kintamojo kryptimis
Matomumas 10 km arba daugiau
Mažai debesys ne aukštis 3000 ft
Tapsmas
nuo 20 metu 10 UTC su 20 metu 12 UTC
Vėjas 10 kt iš Pietų/Pietryčių

TAF: LIEE 191700Z 1918/2018 VRB04KT 9999 FEW030 BECMG 2010/2012 16010KT

Orai ataskaitas ir orų prognozės (METAR, TAF).

turimą stotys yra geltonos ir raudonos taškus žemėlapyje.

Perkelti pele per norėdami pamatyti stoties vardą.

Tada spustelėkite, norėdami matyti oro stebėjimo ir prognozės.

Norėdami pakeisti žemėlapį: spustelėkite ant žalios mygtukų su juodo kryžiaus žemyn,; žalią mygtuką su brūkšneliu, jei norite nutolinti; arba žalių rodyklių gretimoms žemėlapius.


METAR-TAF: